Time;durP1;ratioP1;P1;durP2;ratioP2;P2;SDS_P1;SDS_P2;PMS_P1;PMS_P2;Temp;Humidity;BMP_temperature;BMP_pressure;BME280_temperature;BME280_humidity;BME280_pressure;Samples;Min_cycle;Max_cycle;Signal;HPM_P1;HPM_P2
2022/05/08 00:01:54;;;;;;;11.47;10.30;;;;;;;13.24;83.17;98613.53;4143817;28;20703;-90
2022/05/08 00:03:58;;;;;;;11.83;10.73;;;;;;;13.22;82.28;98613.63;4159958;28;20663;-90
2022/05/08 00:06:07;;;;;;;11.30;10.17;;;;;;;13.17;83.59;98617.53;4162469;28;20648;-90
2022/05/08 00:08:10;;;;;;;11.20;9.73;;;;;;;13.14;83.77;98617.75;4160757;28;20642;-90
2022/05/08 00:10:13;;;;;;;11.63;10.50;;;;;;;13.09;84.62;98611.97;4144548;28;20641;-90
2022/05/08 00:12:17;;;;;;;12.13;10.90;;;;;;;13.07;82.86;98624.34;4157653;28;21233;-90
2022/05/08 00:14:20;;;;;;;11.57;10.37;;;;;;;12.99;83.78;98618.81;4143151;28;20640;-90
2022/05/08 00:16:25;;;;;;;12.50;10.37;;;;;;;12.94;82.77;98626.13;4157752;28;20628;-91
2022/05/08 00:18:28;;;;;;;11.23;10.23;;;;;;;12.89;83.33;98624.78;4144411;28;20830;-90
2022/05/08 00:20:32;;;;;;;11.40;10.27;;;;;;;12.84;83.17;98624.28;4173935;28;20687;-90
2022/05/08 00:22:36;;;;;;;11.50;10.37;;;;;;;12.84;83.53;98629.53;4162076;28;20631;-90
2022/05/08 00:24:39;;;;;;;11.83;10.73;;;;;;;12.84;84.05;98634.75;4144174;28;20654;-90
2022/05/08 00:26:42;;;;;;;12.03;10.93;;;;;;;12.82;83.75;98632.25;4142135;28;20779;-90
2022/05/08 00:28:46;;;;;;;12.20;11.00;;;;;;;12.77;83.92;98633.47;4160055;28;20630;-90
2022/05/08 00:30:49;;;;;;;12.63;11.37;;;;;;;12.76;83.78;98629.16;4142719;28;20745;-90
2022/05/08 00:32:53;;;;;;;11.80;10.60;;;;;;;12.74;83.92;98626.63;4158914;28;21309;-90
2022/05/08 00:34:57;;;;;;;13.40;11.57;;;;;;;12.74;84.74;98628.44;4155861;28;20637;-90
2022/05/08 00:37:00;;;;;;;12.43;11.23;;;;;;;12.71;84.37;98618.16;4145197;28;20639;-90
2022/05/08 00:39:05;;;;;;;12.60;11.40;;;;;;;12.68;84.53;98617.56;4140421;28;20724;-90
2022/05/08 00:41:09;;;;;;;12.60;11.30;;;;;;;12.66;84.55;98616.78;4148806;28;20629;-90
2022/05/08 00:43:28;;;;;;;13.07;11.77;;;;;;;12.64;85.26;98616.91;4151151;28;20636;-90
2022/05/08 00:45:32;;;;;;;13.13;11.83;;;;;;;12.65;84.63;98621.19;4141070;28;21067;-89
2022/05/08 00:47:36;;;;;;;12.50;11.30;;;;;;;12.66;85.02;98614.19;4140035;28;20727;-90
2022/05/08 00:49:40;;;;;;;14.60;11.90;;;;;;;12.63;85.34;98607.41;4140482;28;20738;-89
2022/05/08 00:51:50;;;;;;;14.17;12.80;;;;;;;12.61;84.45;98611.06;4161430;28;21297;-90
2022/05/08 00:53:56;;;;;;;13.97;12.53;;;;;;;12.59;85.46;98613.78;4160646;28;20640;-90
2022/05/08 00:55:59;;;;;;;14.00;12.60;;;;;;;12.55;85.01;98616.69;4141472;28;20668;-90
2022/05/08 00:58:03;;;;;;;14.20;12.60;;;;;;;12.48;84.72;98607.56;4140000;28;20668;-90
2022/05/08 01:00:08;;;;;;;14.90;13.40;;;;;;;12.46;85.80;98609.47;4140396;28;20640;-90
2022/05/08 01:02:13;;;;;;;13.13;11.80;;;;;;;12.43;84.43;98612.28;4160731;28;20691;-90
2022/05/08 01:04:16;;;;;;;14.77;12.30;;;;;;;12.43;85.05;98612.28;4159414;28;21095;-90
2022/05/08 01:06:21;;;;;;;14.13;12.70;;;;;;;12.40;84.76;98612.50;4140813;28;20680;-90
2022/05/08 01:08:25;;;;;;;15.20;13.27;;;;;;;12.38;85.41;98609.16;4157874;28;20872;-90
2022/05/08 01:10:29;;;;;;;17.90;12.87;;;;;;;12.35;85.41;98610.19;4161398;28;20674;-90
2022/05/08 01:12:33;;;;;;;14.40;13.00;;;;;;;12.32;84.72;98607.78;4158287;28;20644;-90
2022/05/08 01:14:37;;;;;;;13.53;12.17;;;;;;;12.27;84.57;98615.09;4160040;28;20648;-90
2022/05/08 01:16:40;;;;;;;14.10;12.27;;;;;;;12.25;83.95;98614.38;4159651;28;21013;-90
2022/05/08 01:18:44;;;;;;;13.90;12.60;;;;;;;12.22;85.34;98608.50;4142012;28;20667;-90
2022/05/08 01:20:48;;;;;;;15.93;13.63;;;;;;;12.20;84.24;98606.94;4142750;28;20655;-90
2022/05/08 01:22:52;;;;;;;15.20;13.03;;;;;;;12.18;85.60;98607.03;4160301;28;20650;-90
2022/05/08 01:25:00;;;;;;;13.60;12.30;;;;;;;12.18;85.81;98611.41;4153930;28;20652;-89
2022/05/08 01:27:04;;;;;;;15.80;12.57;;;;;;;12.14;85.54;98608.16;4136404;28;21095;-90
2022/05/08 01:29:08;;;;;;;14.43;13.00;;;;;;;12.12;86.12;98593.50;4145037;28;21138;-90
2022/05/08 01:31:11;;;;;;;14.07;12.57;;;;;;;12.08;85.54;98602.53;4139599;28;20650;-90
2022/05/08 01:33:14;;;;;;;13.80;12.43;;;;;;;12.07;86.03;98606.06;4137316;28;20635;-90
2022/05/08 01:35:19;;;;;;;14.33;13.03;;;;;;;12.02;85.88;98595.06;4169911;28;20630;-89
2022/05/08 01:37:22;;;;;;;14.30;12.90;;;;;;;11.96;86.00;98596.31;4175179;28;21019;-90
2022/05/08 01:39:27;;;;;;;14.47;13.00;;;;;;;11.94;85.96;98598.19;4159953;28;20674;-90
2022/05/08 01:41:30;;;;;;;14.17;12.77;;;;;;;11.98;85.57;98601.44;4156695;28;20720;-90
2022/05/08 01:43:36;;;;;;;14.60;13.10;;;;;;;11.98;86.76;98598.81;4142679;28;20686;-91
2022/05/08 01:45:40;;;;;;;13.33;12.10;;;;;;;11.98;86.13;98599.69;4159041;28;20630;-90
2022/05/08 01:50:05;;;;;;;13.33;11.97;;;;;;;11.83;85.49;98599.81;4160979;28;20635;-90
2022/05/08 01:52:09;;;;;;;14.50;12.20;;;;;;;11.76;86.60;98596.78;4145919;28;20771;-90
2022/05/08 01:54:12;;;;;;;14.43;12.90;;;;;;;11.75;86.41;98602.09;4174245;28;20630;-90
2022/05/08 01:56:17;;;;;;;13.80;12.40;;;;;;;11.75;85.42;98602.09;4160502;28;20637;-90
2022/05/08 01:58:20;;;;;;;13.30;11.97;;;;;;;11.75;86.59;98608.16;4143506;28;21116;-90
2022/05/08 02:00:24;;;;;;;14.03;12.63;;;;;;;11.74;85.51;98610.03;4161573;28;20981;-90
2022/05/08 02:02:28;;;;;;;13.40;11.37;;;;;;;11.73;86.07;98603.97;4143504;28;20671;-90
2022/05/08 02:04:31;;;;;;;12.20;10.90;;;;;;;11.75;87.04;98606.50;4157459;28;20686;-90
2022/05/08 02:06:35;;;;;;;12.50;11.20;;;;;;;11.74;85.80;98608.25;4144546;28;20642;-90
2022/05/08 02:08:38;;;;;;;13.30;11.90;;;;;;;11.75;87.32;98602.94;4161085;28;20661;-90
2022/05/08 02:10:41;;;;;;;12.97;11.67;;;;;;;11.73;87.38;98605.75;4159539;28;21279;-90
2022/05/08 02:12:46;;;;;;;11.90;10.80;;;;;;;11.73;85.98;98608.34;4156499;28;20734;-90
2022/05/08 02:14:49;;;;;;;13.47;12.17;;;;;;;11.75;86.27;98603.88;4160703;28;20658;-90
2022/05/08 02:16:52;;;;;;;14.03;11.80;;;;;;;11.72;86.63;98606.69;4149130;28;20635;-91
2022/05/08 02:18:56;;;;;;;12.30;11.10;;;;;;;11.69;87.09;98602.50;4157180;28;20626;-90
2022/05/08 02:20:59;;;;;;;13.50;12.10;;;;;;;11.64;87.55;98601.97;4144427;28;20638;-90
2022/05/08 02:23:03;;;;;;;13.10;11.80;;;;;;;11.63;85.80;98602.06;4143594;28;20714;-90
2022/05/08 02:25:08;;;;;;;13.00;11.80;;;;;;;11.64;86.76;98603.75;4158423;28;20715;-90
2022/05/08 02:27:12;;;;;;;12.90;11.60;;;;;;;11.59;86.32;98603.19;4175401;28;20628;-90
2022/05/08 02:29:19;;;;;;;12.80;11.60;;;;;;;11.56;86.79;98606.84;4173632;28;20655;-90
2022/05/08 02:31:22;;;;;;;12.20;11.10;;;;;;;11.51;86.62;98603.66;4175814;28;20620;-90
2022/05/08 02:33:25;;;;;;;12.57;11.37;;;;;;;11.50;86.81;98601.16;4142444;28;21529;-90
2022/05/08 02:35:29;;;;;;;12.83;11.53;;;;;;;11.48;87.14;98608.25;4158576;28;20702;-90
2022/05/08 02:37:33;;;;;;;13.27;12.07;;;;;;;11.45;86.31;98600.59;4160314;28;20793;-90
2022/05/08 02:39:36;;;;;;;14.17;12.77;;;;;;;11.45;86.41;98603.19;4158565;28;20641;-90
2022/05/08 02:41:39;;;;;;;13.40;11.80;;;;;;;11.44;87.49;98598.91;4142332;28;20638;-90
2022/05/08 02:43:44;;;;;;;14.47;12.97;;;;;;;11.45;88.00;98608.44;4141784;28;20729;-90
2022/05/08 02:45:49;;;;;;;13.70;12.30;;;;;;;11.44;87.86;98612.81;4158789;28;20647;-90
2022/05/08 02:47:52;;;;;;;13.33;12.03;;;;;;;11.41;87.09;98606.94;4141145;28;21278;-90
2022/05/08 02:49:55;;;;;;;14.63;13.17;;;;;;;11.39;87.98;98612.25;4157745;28;20724;-90
2022/05/08 02:51:59;;;;;;;13.27;11.90;;;;;;;11.40;87.86;98607.88;4157857;28;20684;-90
2022/05/08 02:54:02;;;;;;;17.50;12.47;;;;;;;11.38;86.76;98607.97;4140491;28;20630;-90
2022/05/08 02:58:35;;;;;;;14.10;12.70;;;;;;;11.32;86.96;98612.72;4157524;28;21238;-90
2022/05/08 03:00:38;;;;;;;13.37;12.17;;;;;;;11.29;86.89;98607.72;4160500;28;20667;-90
2022/05/08 03:02:43;;;;;;;13.73;12.37;;;;;;;11.28;87.98;98608.66;4144416;28;20748;-90
2022/05/08 03:04:47;;;;;;;13.57;12.17;;;;;;;11.25;87.39;98613.25;4138633;28;20662;-90
2022/05/08 03:06:51;;;;;;;13.80;12.40;;;;;;;11.24;87.29;98609.78;4174040;28;20698;-90
2022/05/08 03:08:54;;;;;;;14.03;12.73;;;;;;;11.24;87.15;98609.78;4158830;28;20656;-90
2022/05/08 03:13:18;;;;;;;15.17;13.50;;;;;;;11.19;87.29;98606.63;4156814;28;20767;-90
2022/05/08 03:15:22;;;;;;;14.30;12.90;;;;;;;11.18;87.87;98615.38;4160644;28;20637;-90
2022/05/08 03:17:26;;;;;;;16.37;13.13;;;;;;;11.16;88.08;98617.25;4160732;28;20635;-90
2022/05/08 03:19:31;;;;;;;14.77;13.13;;;;;;;11.15;86.99;98615.56;4143939;28;20731;-90
2022/05/08 03:21:35;;;;;;;15.27;13.80;;;;;;;11.09;87.32;98612.50;4160875;28;20628;-90
2022/05/08 03:23:39;;;;;;;13.93;12.60;;;;;;;11.03;87.27;98616.31;4141500;28;20641;-90
2022/05/08 03:25:42;;;;;;;14.87;13.33;;;;;;;10.98;87.35;98613.16;4161595;28;20650;-90
2022/05/08 03:27:46;;;;;;;14.47;12.37;;;;;;;10.97;86.96;98621.09;4161253;28;21056;-90
2022/05/08 03:29:49;;;;;;;14.10;12.80;;;;;;;10.93;87.60;98623.06;4159998;28;20663;-90
2022/05/08 03:31:53;;;;;;;15.03;13.53;;;;;;;10.92;87.42;98618.75;4160900;28;20710;-90
2022/05/08 03:33:57;;;;;;;16.50;12.40;;;;;;;10.93;87.83;98625.66;4160178;28;20703;-90
2022/05/08 03:36:02;;;;;;;14.93;13.40;;;;;;;10.98;87.37;98623.59;4176304;28;20668;-90
2022/05/08 03:38:06;;;;;;;15.47;13.87;;;;;;;11.00;88.40;98615.69;4180498;28;20637;-90
2022/05/08 03:40:10;;;;;;;15.10;13.20;;;;;;;11.01;88.00;98617.38;4174645;28;20636;-91
2022/05/08 03:42:13;;;;;;;14.27;12.87;;;;;;;11.01;88.63;98623.41;4177328;28;21117;-90
2022/05/08 03:44:17;;;;;;;14.70;13.30;;;;;;;11.02;88.47;98627.72;4163299;28;20640;-90
2022/05/08 03:46:20;;;;;;;14.40;13.00;;;;;;;11.01;88.59;98625.19;4160270;28;20654;-90
2022/05/08 03:48:23;;;;;;;15.17;13.67;;;;;;;11.00;88.23;98629.56;4142029;28;20653;-91
2022/05/08 03:50:27;;;;;;;15.07;13.50;;;;;;;11.00;87.99;98624.34;4160486;28;20747;-90
2022/05/08 03:52:31;;;;;;;14.60;13.10;;;;;;;11.00;88.21;98629.56;4144781;28;21231;-90
2022/05/08 03:54:35;;;;;;;14.80;13.30;;;;;;;10.97;87.76;98631.53;4143355;28;20721;-90
2022/05/08 03:56:38;;;;;;;14.63;13.07;;;;;;;10.92;87.44;98623.97;4160617;28;20629;-90
2022/05/08 03:58:41;;;;;;;15.23;13.83;;;;;;;10.88;87.52;98632.09;4160175;28;20653;-90
2022/05/08 04:00:45;;;;;;;15.00;13.47;;;;;;;10.89;88.33;98626.78;4160015;28;20628;-90
2022/05/08 04:02:48;;;;;;;14.77;13.37;;;;;;;10.90;88.54;98625.03;4177078;28;20714;-90
2022/05/08 04:04:52;;;;;;;15.37;13.87;;;;;;;10.89;88.28;98637.22;4149452;28;20650;-90
2022/05/08 04:06:56;;;;;;;15.20;13.70;;;;;;;10.86;88.24;98634.78;4161121;28;20634;-90
2022/05/08 04:09:01;;;;;;;16.20;14.43;;;;;;;10.82;88.66;98633.31;4175716;28;21103;-90
2022/05/08 04:11:04;;;;;;;15.30;13.70;;;;;;;10.79;88.96;98630.03;4160352;28;20643;-90
2022/05/08 04:13:08;;;;;;;16.83;14.27;;;;;;;10.83;88.10;98634.97;4159041;28;20650;-90
2022/05/08 04:16:15;;;;;;;16.53;15.00;;;;;;;10.89;88.50;98633.78;4159133;28;20661;-90
2022/05/08 04:17:36;;;;;;;15.27;13.70;;;;;;;10.90;88.41;98631.06;4158914;28;20649;-90
2022/05/08 04:19:39;;;;;;;14.90;13.40;;;;;;;10.84;87.69;98626.22;4160428;28;21207;-90
2022/05/08 04:21:43;;;;;;;15.53;14.03;;;;;;;10.80;87.89;98629.94;4159975;28;20632;-90
2022/05/08 04:26:23;;;;;;;13.83;12.53;;;;;;;10.76;88.24;98639.81;4088343;28;20709;-90
2022/05/08 04:28:26;;;;;;;14.17;12.67;;;;;;;10.72;87.71;98636.56;4077317;29;20643;-90
2022/05/08 04:30:30;;;;;;;15.60;13.27;;;;;;;10.67;87.57;98640.38;4078028;29;20689;-90
2022/05/08 04:32:33;;;;;;;15.57;13.87;;;;;;;10.64;87.36;98640.56;4139024;28;20699;-91
2022/05/08 04:34:37;;;;;;;15.00;13.50;;;;;;;10.63;88.16;98639.72;4144169;28;20643;-90
2022/05/08 04:36:40;;;;;;;15.40;13.27;;;;;;;10.67;88.18;98641.22;4160902;28;20632;-90
2022/05/08 04:38:44;;;;;;;14.90;13.40;;;;;;;10.72;89.18;98644.41;4139930;28;20696;-90
2022/05/08 04:40:47;;;;;;;14.33;13.00;;;;;;;10.78;88.65;98651.00;4158924;28;20640;-89
2022/05/08 04:42:52;;;;;;;14.70;13.30;;;;;;;10.80;88.81;98645.59;4159297;28;21205;-90
2022/05/08 04:44:55;;;;;;;15.10;13.50;;;;;;;10.86;89.52;98655.66;4143096;28;20638;-90
2022/05/08 04:46:59;;;;;;;15.47;13.97;;;;;;;10.87;88.98;98652.13;4140906;28;20641;-89
2022/05/08 04:49:02;;;;;;;15.37;13.90;;;;;;;10.91;88.85;98664.03;4155556;28;21001;-90
2022/05/08 04:51:06;;;;;;;15.47;13.97;;;;;;;10.92;89.06;98660.50;4162471;28;21318;-90
2022/05/08 04:53:09;;;;;;;15.50;13.90;;;;;;;10.95;88.99;98662.09;4146394;28;20669;-90
2022/05/08 04:55:12;;;;;;;15.80;14.20;;;;;;;10.95;88.89;98665.53;4160717;28;20638;-90
2022/05/08 04:57:15;;;;;;;16.73;13.70;;;;;;;10.96;88.82;98662.00;4146266;28;20752;-90
2022/05/08 04:59:20;;;;;;;17.20;14.20;;;;;;;10.94;89.19;98663.03;4145643;28;20632;-90
2022/05/08 05:01:23;;;;;;;15.50;13.90;;;;;;;10.94;88.96;98669.06;4143509;28;21017;-90
2022/05/08 05:03:27;;;;;;;15.93;14.40;;;;;;;10.94;89.03;98663.03;4161788;28;21118;-90
2022/05/08 05:05:30;;;;;;;16.23;14.40;;;;;;;10.94;88.82;98665.63;4161247;28;20705;-90
2022/05/08 05:07:34;;;;;;;15.13;13.67;;;;;;;10.96;88.59;98667.25;4146869;28;21113;-91
2022/05/08 05:09:37;;;;;;;15.30;13.73;;;;;;;10.98;88.55;98665.38;4145058;28;20649;-90
2022/05/08 05:11:40;;;;;;;18.60;14.10;;;;;;;10.99;89.46;98664.44;4179631;28;20734;-90
2022/05/08 05:13:44;;;;;;;15.43;13.93;;;;;;;11.03;89.57;98668.53;4143177;28;21129;-90
2022/05/08 05:15:49;;;;;;;15.40;13.80;;;;;;;11.05;89.72;98666.69;4159163;28;21233;-90
2022/05/08 05:17:52;;;;;;;15.47;14.00;;;;;;;11.07;89.88;98664.81;4161401;28;20636;-91
2022/05/08 05:19:56;;;;;;;15.73;14.13;;;;;;;11.11;89.71;98666.31;4163172;28;20716;-90
2022/05/08 05:22:00;;;;;;;18.03;16.23;;;;;;;11.14;90.31;98670.47;4162111;28;21211;-90
2022/05/08 05:24:04;;;;;;;17.43;15.67;;;;;;;11.18;89.85;98670.19;4157726;28;20613;-90
2022/05/08 05:26:07;;;;;;;16.63;14.97;;;;;;;11.24;90.35;98669.81;4138982;28;20671;-90
2022/05/08 05:28:10;;;;;;;16.30;14.80;;;;;;;11.26;89.26;98675.81;4142639;28;20637;-90
2022/05/08 05:30:16;;;;;;;16.23;14.63;;;;;;;11.29;89.65;98681.69;4145584;28;20673;-90
2022/05/08 05:32:20;;;;;;;15.50;13.97;;;;;;;11.29;89.19;98675.63;4159235;28;20659;-90
2022/05/08 05:34:24;;;;;;;17.67;15.87;;;;;;;11.31;89.41;98684.19;4169263;28;20663;-89
2022/05/08 05:36:27;;;;;;;16.77;15.07;;;;;;;11.33;89.66;98685.75;4156331;28;20648;-90
2022/05/08 05:38:30;;;;;;;17.93;15.83;;;;;;;11.36;90.08;98688.16;4156376;28;20640;-90
2022/05/08 05:40:34;;;;;;;16.87;15.17;;;;;;;11.41;89.59;98693.97;4157959;28;20636;-90
2022/05/08 05:42:37;;;;;;;17.00;15.27;;;;;;;11.46;90.00;98693.69;4160490;28;20625;-90
2022/05/08 05:44:40;;;;;;;18.07;16.37;;;;;;;11.55;89.59;98693.16;4159636;28;20720;-90
2022/05/08 05:49:15;;;;;;;19.07;15.27;;;;;;;11.72;91.33;98693.75;4108012;28;20751;-90
2022/05/08 05:51:18;;;;;;;16.83;14.63;;;;;;;11.78;90.69;98693.38;4154164;28;20642;-90
2022/05/08 05:53:22;;;;;;;18.03;16.23;;;;;;;11.83;90.33;98694.75;4160037;28;20731;-90
2022/05/08 05:55:25;;;;;;;17.90;16.20;;;;;;;11.93;90.66;98701.06;4145114;28;20653;-91
2022/05/08 05:57:29;;;;;;;17.43;15.63;;;;;;;12.00;91.23;98701.53;4155843;28;20628;-90
2022/05/08 05:59:32;;;;;;;18.97;16.97;;;;;;;12.05;87.99;98705.50;4143150;28;20654;-90
2022/05/08 06:01:43;;;;;;;17.80;16.00;;;;;;;12.12;89.02;98704.19;4147254;28;20629;-90
2022/05/08 06:03:46;;;;;;;21.37;17.10;;;;;;;12.23;89.51;98704.31;4135897;28;20670;-89
2022/05/08 06:05:51;;;;;;;19.80;17.07;;;;;;;12.38;89.12;98713.78;4145796;28;20735;-90
2022/05/08 06:07:55;;;;;;;18.50;16.70;;;;;;;12.53;88.82;98703.16;4157796;28;20650;-90
2022/05/08 06:10:00;;;;;;;19.03;17.03;;;;;;;12.70;87.88;98716.78;4143316;28;20681;-90
2022/05/08 06:12:05;;;;;;;18.13;16.37;;;;;;;12.87;86.16;98710.44;4142782;28;21220;-90
2022/05/08 06:14:08;;;;;;;17.10;15.30;;;;;;;12.93;84.79;98703.03;4162657;28;20636;-90
2022/05/08 06:16:12;;;;;;;17.63;15.90;;;;;;;12.96;84.80;98701.97;4149309;28;21290;-90
2022/05/08 06:18:15;;;;;;;18.47;16.57;;;;;;;12.97;86.10;98709.72;4137703;28;20638;-90
2022/05/08 06:20:18;;;;;;;19.30;16.63;;;;;;;13.00;86.67;98708.69;4176888;28;20678;-90
2022/05/08 06:22:23;;;;;;;17.90;16.20;;;;;;;13.01;85.92;98711.19;4157481;28;20647;-90
2022/05/08 06:24:27;;;;;;;18.57;16.63;;;;;;;13.02;86.01;98707.63;4159989;28;20637;-90
2022/05/08 06:26:30;;;;;;;18.27;16.23;;;;;;;13.06;86.12;98714.31;4139937;28;20630;-90
2022/05/08 06:28:34;;;;;;;19.03;17.13;;;;;;;13.12;87.75;98718.31;4160129;28;21214;-90
2022/05/08 06:30:37;;;;;;;18.73;16.93;;;;;;;13.17;88.12;98717.06;4158704;28;20694;-90
2022/05/08 06:32:40;;;;;;;17.50;15.90;;;;;;;13.22;87.67;98715.78;4171905;28;20657;-90
2022/05/08 06:35:04;;;;;;;18.13;16.23;;;;;;;13.30;87.89;98721.34;4158136;28;21230;-90
2022/05/08 06:37:07;;;;;;;17.73;16.03;;;;;;;13.38;88.07;98724.28;4161903;28;20632;-90
2022/05/08 06:39:13;;;;;;;18.53;16.63;;;;;;;13.46;88.38;98732.44;4158284;28;20640;-89
2022/05/08 06:41:16;;;;;;;18.47;16.67;;;;;;;13.53;87.53;98727.59;4159094;28;20720;-90
2022/05/08 06:43:19;;;;;;;19.00;17.20;;;;;;;13.55;86.56;98729.19;4160124;28;20634;-90
2022/05/08 06:45:24;;;;;;;19.47;17.00;;;;;;;13.63;88.01;98734.72;4156132;28;22952;-90
2022/05/08 06:47:28;;;;;;;18.67;16.70;;;;;;;13.67;85.56;98734.41;4144256;28;20730;-90
2022/05/08 06:49:32;;;;;;;18.23;16.53;;;;;;;13.77;87.31;98738.06;4143707;28;20699;-90
2022/05/08 06:51:35;;;;;;;18.77;17.17;;;;;;;13.88;87.50;98738.13;4160284;28;20654;-91
2022/05/08 06:53:39;;;;;;;18.53;16.63;;;;;;;13.96;86.71;98738.41;4142397;28;20728;-90
2022/05/08 06:55:45;;;;;;;20.13;17.97;;;;;;;14.13;86.43;98739.84;4161002;28;20745;-90
2022/05/08 06:57:49;;;;;;;19.57;17.53;;;;;;;14.35;86.63;98748.69;4163687;28;20636;-90
2022/05/08 07:02:13;;;;;;;19.87;17.97;;;;;;;14.84;85.93;98745.81;4167086;28;20770;-90
2022/05/08 07:04:16;;;;;;;19.17;17.17;;;;;;;15.06;87.23;98743.22;4162799;28;20670;-90
2022/05/08 07:06:19;;;;;;;19.37;17.47;;;;;;;15.19;85.76;98739.56;4161708;28;20652;-90
2022/05/08 07:08:23;;;;;;;18.20;16.50;;;;;;;15.25;84.62;98741.75;4160300;28;21270;-90
2022/05/08 07:10:26;;;;;;;17.90;16.17;;;;;;;15.34;87.01;98745.47;4142524;28;21477;-90
2022/05/08 07:12:31;;;;;;;18.10;16.40;;;;;;;15.39;84.64;98744.13;4149948;28;20690;-90
2022/05/08 07:14:35;;;;;;;18.30;16.53;;;;;;;15.43;85.42;98750.84;4150216;28;20640;-90
2022/05/08 07:16:39;;;;;;;18.27;16.57;;;;;;;15.46;86.12;98744.53;4144714;28;20637;-91
2022/05/08 07:18:42;;;;;;;20.00;17.10;;;;;;;15.46;86.74;98747.16;4141748;28;20633;-90
2022/05/08 07:20:45;;;;;;;18.87;17.10;;;;;;;15.49;86.70;98747.75;4145449;28;20652;-90
2022/05/08 07:22:49;;;;;;;20.07;18.17;;;;;;;15.56;86.28;98743.69;4164106;28;20731;-90
2022/05/08 07:24:52;;;;;;;18.97;17.10;;;;;;;15.63;87.22;98750.13;4154010;28;20664;-90
2022/05/08 07:26:57;;;;;;;18.43;16.73;;;;;;;15.72;86.97;98752.88;4164305;28;21219;-90
2022/05/08 07:29:01;;;;;;;19.47;17.67;;;;;;;15.80;86.13;98753.13;4145933;28;21211;-90
2022/05/08 07:31:07;;;;;;;18.93;17.13;;;;;;;15.77;84.96;98753.38;4141807;28;20662;-90
2022/05/08 07:33:16;;;;;;;18.67;16.77;;;;;;;15.80;85.51;98752.28;4144055;28;20724;-92
2022/05/08 07:37:43;;;;;;;20.20;18.20;;;;;;;15.77;83.88;98757.78;4145891;28;20745;-90
2022/05/08 07:39:46;;;;;;;18.40;16.70;;;;;;;15.74;83.36;98758.88;4144118;28;20652;-92
2022/05/08 07:41:51;;;;;;;18.13;16.40;;;;;;;15.78;85.37;98760.28;4163041;28;20661;-89
2022/05/08 07:43:55;;;;;;;18.70;17.00;;;;;;;15.83;83.83;98763.41;4172843;28;20644;-90
2022/05/08 07:46:00;;;;;;;19.13;17.23;;;;;;;15.91;85.40;98766.25;4156471;28;20656;-89
2022/05/08 07:48:03;;;;;;;18.97;17.17;;;;;;;16.00;85.75;98765.53;4146136;28;20635;-89
2022/05/08 07:50:08;;;;;;;18.27;16.43;;;;;;;16.10;85.80;98771.72;4146747;28;20643;-90
2022/05/08 07:52:12;;;;;;;18.27;16.50;;;;;;;16.19;83.46;98763.97;4161762;28;20707;-88
2022/05/08 07:54:15;;;;;;;17.77;16.07;;;;;;;16.27;84.33;98764.22;4162247;28;20633;-88
2022/05/08 07:56:19;;;;;;;18.97;17.17;;;;;;;16.44;83.20;98774.22;4152721;28;21219;-90
2022/05/08 07:58:23;;;;;;;17.73;16.03;;;;;;;16.65;83.08;98770.66;4144707;28;20769;-92
2022/05/08 08:00:26;;;;;;;17.83;16.03;;;;;;;16.83;82.15;98769.16;4162974;28;20618;-89
2022/05/08 08:02:31;;;;;;;18.73;16.80;;;;;;;17.00;82.74;98769.44;4176629;28;21263;-91
2022/05/08 08:04:36;;;;;;;18.17;16.47;;;;;;;17.09;80.71;98770.47;4157473;28;20640;-89
2022/05/08 08:06:39;;;;;;;19.20;17.30;;;;;;;17.15;81.59;98776.06;4156098;28;21048;-89
2022/05/08 08:08:42;;;;;;;17.87;16.17;;;;;;;17.16;79.95;98766.38;4159547;28;20661;-89
2022/05/08 08:10:46;;;;;;;17.77;16.07;;;;;;;17.24;80.21;98780.59;4144189;28;20662;-89
2022/05/08 08:12:49;;;;;;;17.73;16.03;;;;;;;17.27;80.24;98775.06;4162546;28;20735;-89
2022/05/08 08:14:52;;;;;;;19.10;17.10;;;;;;;17.42;81.93;98780.84;4147247;28;20630;-89
2022/05/08 08:16:55;;;;;;;18.73;16.87;;;;;;;17.53;79.65;98776.34;4152687;28;20752;-89
2022/05/08 08:19:00;;;;;;;18.47;16.83;;;;;;;17.63;79.37;98778.03;4161854;28;21204;-89
2022/05/08 08:21:04;;;;;;;18.60;16.70;;;;;;;17.78;80.21;98789.09;4164392;28;20630;-89
2022/05/08 08:23:08;;;;;;;16.37;14.80;;;;;;;17.95;79.30;98779.59;4147592;28;20711;-89
2022/05/08 08:25:11;;;;;;;16.20;14.70;;;;;;;18.20;79.17;98783.59;4162718;28;20683;-89
2022/05/08 08:27:19;;;;;;;16.20;14.70;;;;;;;18.41;77.68;98792.28;4156032;28;20622;-89
2022/05/08 08:29:22;;;;;;;16.20;14.80;;;;;;;18.65;75.41;98788.28;4144701;28;20634;-88
2022/05/08 08:31:25;;;;;;;16.07;14.57;;;;;;;18.98;77.25;98794.84;4172829;28;21066;-89
2022/05/08 08:33:30;;;;;;;15.40;14.00;;;;;;;19.26;74.40;98785.25;4181214;28;20643;-88
2022/05/08 08:35:36;;;;;;;16.60;15.00;;;;;;;19.49;72.30;98790.09;4162113;28;20677;-88
2022/05/08 08:37:44;;;;;;;17.13;15.63;;;;;;;19.64;72.07;98791.31;4151494;28;20642;-88
2022/05/08 08:39:48;;;;;;;16.40;14.80;;;;;;;19.65;72.88;98788.53;4146298;28;21252;-89
2022/05/08 08:41:57;;;;;;;15.67;14.23;;;;;;;19.75;72.72;98786.66;4146421;28;20721;-89
2022/05/08 08:48:58;;;;;;;14.77;13.37;;;;;;;19.88;69.76;98793.34;4081348;29;20678;-89
2022/05/08 08:51:03;;;;;;;14.97;13.47;;;;;;;19.97;69.09;98786.34;4113766;28;20658;-91
2022/05/08 08:53:07;;;;;;;14.67;13.17;;;;;;;20.08;67.15;98794.09;4140601;28;20677;-93
2022/05/08 08:55:11;;;;;;;14.47;13.07;;;;;;;20.24;67.56;98789.84;4160253;28;20649;-93
2022/05/08 08:57:18;;;;;;;14.70;13.20;;;;;;;20.30;68.41;98789.25;4164849;28;21009;-95
2022/05/08 08:59:22;;;;;;;14.53;13.03;;;;;;;20.46;67.65;98795.59;4177187;28;20644;-91
2022/05/08 09:01:25;;;;;;;15.87;14.27;;;;;;;20.69;67.65;98791.56;4159891;28;20640;-91
2022/05/08 09:03:30;;;;;;;14.30;13.00;;;;;;;20.84;67.67;98790.88;4161872;28;20693;-96
2022/05/08 09:13:56;;;;;;;15.03;13.53;;;;;;;21.50;63.85;98781.50;4137151;28;20698;-94
2022/05/08 09:16:04;;;;;;;13.50;12.20;;;;;;;21.69;65.26;98795.41;4124911;28;20693;-92
2022/05/08 09:18:09;;;;;;;14.50;12.93;;;;;;;21.89;65.41;98786.25;4125903;28;20642;-91
2022/05/08 09:20:33;;;;;;;13.73;12.43;;;;;;;21.95;65.21;98786.47;4141639;28;20681;-94
2022/05/08 09:22:37;;;;;;;14.67;13.17;;;;;;;21.89;62.26;98787.09;4137332;28;20630;-93
2022/05/08 09:24:53;;;;;;;13.97;12.67;;;;;;;21.80;63.35;98784.56;4156499;28;20618;-96
2022/05/08 09:27:10;;;;;;;13.33;11.90;;;;;;;21.77;62.79;98782.22;4139610;28;21046;-92
2022/05/08 09:29:24;;;;;;;14.03;12.63;;;;;;;21.86;63.02;98789.22;4138179;28;21230;-95
2022/05/08 09:31:50;;;;;;;14.40;13.07;;;;;;;21.91;63.17;98786.94;4142064;28;21119;-91
2022/05/08 09:33:54;;;;;;;12.83;11.57;;;;;;;22.04;63.37;98779.34;4140737;28;20658;-93
2022/05/08 09:35:58;;;;;;;12.70;11.50;;;;;;;22.40;63.92;98787.00;4128359;28;20631;-93
2022/05/08 09:38:02;;;;;;;12.97;11.50;;;;;;;22.72;60.92;98780.81;4152943;28;20866;-95
2022/05/08 09:40:19;;;;;;;11.13;10.00;;;;;;;22.79;61.40;98783.63;4125475;28;20730;-96
2022/05/08 09:42:39;;;;;;;11.67;10.67;;;;;;;22.87;61.80;98771.19;4145124;28;20732;-94
2022/05/08 09:45:07;;;;;;;11.27;9.97;;;;;;;23.17;60.54;98778.56;4126579;28;20635;-94
2022/05/08 09:47:42;;;;;;;10.40;9.40;;;;;;;23.18;58.16;98779.41;4123946;28;20978;-91
2022/05/08 09:49:46;;;;;;;10.03;8.60;;;;;;;23.11;59.09;98781.03;4142060;28;20647;-92
2022/05/08 09:51:50;;;;;;;10.53;9.63;;;;;;;23.15;57.26;98779.72;4120961;28;20632;-92
2022/05/08 09:53:54;;;;;;;10.52;8.75;;;;;;;23.05;57.10;98773.72;4140689;28;20755;-91
2022/05/08 09:55:59;;;;;;;10.10;9.10;;;;;;;23.01;56.89;98775.06;4156298;28;20195;-93
2022/05/08 09:58:03;;;;;;;10.17;9.17;;;;;;;22.78;57.10;98782.00;4160611;28;21282;-95
2022/05/08 10:00:13;;;;;;;10.50;9.40;;;;;;;22.62;58.18;98775.78;4128069;28;20741;-93
2022/05/08 10:02:21;;;;;;;10.50;9.60;;;;;;;22.45;57.16;98764.28;4139573;28;20246;-94
2022/05/08 10:04:25;;;;;;;10.27;9.27;;;;;;;22.34;57.51;98777.88;4141186;28;20701;-91